sensor_id;sensor_type;location;lat;lon;timestamp;temperature;humidity
65598;SHT31;52267;51.984;20.956;2023-04-07T00:01:55;4.27;87.39
65598;SHT31;52267;51.984;20.956;2023-04-07T00:04:22;4.28;87.52
65598;SHT31;52267;51.984;20.956;2023-04-07T00:06:49;4.28;87.43
65598;SHT31;52267;51.984;20.956;2023-04-07T00:09:16;4.30;87.42
65598;SHT31;52267;51.984;20.956;2023-04-07T00:11:43;4.31;87.36
65598;SHT31;52267;51.984;20.956;2023-04-07T00:14:10;4.32;87.35
65598;SHT31;52267;51.984;20.956;2023-04-07T00:16:38;4.33;87.33
65598;SHT31;52267;51.984;20.956;2023-04-07T00:19:04;4.33;87.26
65598;SHT31;52267;51.984;20.956;2023-04-07T00:21:32;4.33;87.36
65598;SHT31;52267;51.984;20.956;2023-04-07T00:23:59;4.33;87.61
65598;SHT31;52267;51.984;20.956;2023-04-07T00:26:26;4.33;87.64
65598;SHT31;52267;51.984;20.956;2023-04-07T00:28:57;4.35;87.69
65598;SHT31;52267;51.984;20.956;2023-04-07T00:31:24;4.36;87.64
65598;SHT31;52267;51.984;20.956;2023-04-07T00:33:52;4.39;87.66
65598;SHT31;52267;51.984;20.956;2023-04-07T00:36:21;4.40;87.75
65598;SHT31;52267;51.984;20.956;2023-04-07T00:38:48;4.42;87.85
65598;SHT31;52267;51.984;20.956;2023-04-07T00:41:15;4.43;87.84
65598;SHT31;52267;51.984;20.956;2023-04-07T00:43:42;4.45;87.77
65598;SHT31;52267;51.984;20.956;2023-04-07T00:46:09;4.46;87.78
65598;SHT31;52267;51.984;20.956;2023-04-07T00:48:36;4.47;87.76
65598;SHT31;52267;51.984;20.956;2023-04-07T00:51:03;4.49;87.85
65598;SHT31;52267;51.984;20.956;2023-04-07T00:53:31;4.51;87.77
65598;SHT31;52267;51.984;20.956;2023-04-07T00:55:58;4.52;87.79
65598;SHT31;52267;51.984;20.956;2023-04-07T00:58:25;4.53;87.81
65598;SHT31;52267;51.984;20.956;2023-04-07T01:01:02;4.55;87.83
65598;SHT31;52267;51.984;20.956;2023-04-07T01:03:37;4.58;87.81
65598;SHT31;52267;51.984;20.956;2023-04-07T01:06:32;4.59;87.77
65598;SHT31;52267;51.984;20.956;2023-04-07T01:09:04;4.59;87.83
65598;SHT31;52267;51.984;20.956;2023-04-07T01:15:19;4.61;87.71
65598;SHT31;52267;51.984;20.956;2023-04-07T01:17:58;4.61;87.64
65598;SHT31;52267;51.984;20.956;2023-04-07T01:20:36;4.63;87.71
65598;SHT31;52267;51.984;20.956;2023-04-07T01:23:05;4.61;87.80
65598;SHT31;52267;51.984;20.956;2023-04-07T01:25:53;4.62;87.79
65598;SHT31;52267;51.984;20.956;2023-04-07T01:28:54;4.64;87.83
65598;SHT31;52267;51.984;20.956;2023-04-07T01:31:30;4.63;87.93
65598;SHT31;52267;51.984;20.956;2023-04-07T01:33:58;4.64;87.92
65598;SHT31;52267;51.984;20.956;2023-04-07T01:36:28;4.63;87.93
65598;SHT31;52267;51.984;20.956;2023-04-07T01:38:59;4.64;87.81
65598;SHT31;52267;51.984;20.956;2023-04-07T01:41:26;4.63;87.84
65598;SHT31;52267;51.984;20.956;2023-04-07T01:43:55;4.63;87.87
65598;SHT31;52267;51.984;20.956;2023-04-07T01:46:24;4.64;87.81
65598;SHT31;52267;51.984;20.956;2023-04-07T01:48:51;4.66;87.80
65598;SHT31;52267;51.984;20.956;2023-04-07T01:51:19;4.67;87.79
65598;SHT31;52267;51.984;20.956;2023-04-07T01:53:48;4.66;87.72
65598;SHT31;52267;51.984;20.956;2023-04-07T01:56:15;4.67;87.71
65598;SHT31;52267;51.984;20.956;2023-04-07T01:58:42;4.68;87.68
65598;SHT31;52267;51.984;20.956;2023-04-07T02:01:09;4.68;87.69
65598;SHT31;52267;51.984;20.956;2023-04-07T02:03:39;4.68;87.66
65598;SHT31;52267;51.984;20.956;2023-04-07T02:06:11;4.68;87.68
65598;SHT31;52267;51.984;20.956;2023-04-07T02:08:44;4.66;87.81
65598;SHT31;52267;51.984;20.956;2023-04-07T02:11:16;4.68;87.78
65598;SHT31;52267;51.984;20.956;2023-04-07T02:13:46;4.69;87.80
65598;SHT31;52267;51.984;20.956;2023-04-07T02:16:20;4.69;87.87
65598;SHT31;52267;51.984;20.956;2023-04-07T02:18:48;4.70;87.86
65598;SHT31;52267;51.984;20.956;2023-04-07T02:21:16;4.71;87.88
65598;SHT31;52267;51.984;20.956;2023-04-07T02:23:45;4.72;87.84
65598;SHT31;52267;51.984;20.956;2023-04-07T02:26:12;4.74;87.86
65598;SHT31;52267;51.984;20.956;2023-04-07T02:28:42;4.73;87.92
65598;SHT31;52267;51.984;20.956;2023-04-07T02:31:09;4.73;87.94
65598;SHT31;52267;51.984;20.956;2023-04-07T02:33:38;4.73;87.94
65598;SHT31;52267;51.984;20.956;2023-04-07T02:36:06;4.74;87.91
65598;SHT31;52267;51.984;20.956;2023-04-07T02:38:33;4.75;87.95
65598;SHT31;52267;51.984;20.956;2023-04-07T02:41:00;4.74;87.99
65598;SHT31;52267;51.984;20.956;2023-04-07T02:43:27;4.75;88.00
65598;SHT31;52267;51.984;20.956;2023-04-07T02:45:54;4.75;87.99
65598;SHT31;52267;51.984;20.956;2023-04-07T02:48:21;4.76;88.04
65598;SHT31;52267;51.984;20.956;2023-04-07T02:50:48;4.77;87.94
65598;SHT31;52267;51.984;20.956;2023-04-07T02:53:15;4.77;87.99
65598;SHT31;52267;51.984;20.956;2023-04-07T02:55:42;4.75;88.09
65598;SHT31;52267;51.984;20.956;2023-04-07T02:58:09;4.76;88.18
65598;SHT31;52267;51.984;20.956;2023-04-07T03:00:36;4.76;88.29
65598;SHT31;52267;51.984;20.956;2023-04-07T03:03:03;4.76;88.27
65598;SHT31;52267;51.984;20.956;2023-04-07T03:05:30;4.76;88.26
65598;SHT31;52267;51.984;20.956;2023-04-07T03:07:58;4.78;88.20
65598;SHT31;52267;51.984;20.956;2023-04-07T03:10:25;4.81;88.10
65598;SHT31;52267;51.984;20.956;2023-04-07T03:12:52;4.81;88.19
65598;SHT31;52267;51.984;20.956;2023-04-07T03:15:19;4.81;88.24
65598;SHT31;52267;51.984;20.956;2023-04-07T03:17:46;4.83;88.22
65598;SHT31;52267;51.984;20.956;2023-04-07T03:20:13;4.84;88.21
65598;SHT31;52267;51.984;20.956;2023-04-07T03:22:40;4.85;88.24
65598;SHT31;52267;51.984;20.956;2023-04-07T03:25:07;4.88;88.28
65598;SHT31;52267;51.984;20.956;2023-04-07T03:27:34;4.88;88.39
65598;SHT31;52267;51.984;20.956;2023-04-07T03:30:02;4.88;88.48
65598;SHT31;52267;51.984;20.956;2023-04-07T03:32:30;4.89;88.45
65598;SHT31;52267;51.984;20.956;2023-04-07T03:34:57;4.91;88.39
65598;SHT31;52267;51.984;20.956;2023-04-07T03:37:24;4.91;88.42
65598;SHT31;52267;51.984;20.956;2023-04-07T03:39:51;4.93;88.44
65598;SHT31;52267;51.984;20.956;2023-04-07T03:42:18;4.94;88.47
65598;SHT31;52267;51.984;20.956;2023-04-07T03:44:45;4.95;88.46
65598;SHT31;52267;51.984;20.956;2023-04-07T03:47:12;4.96;88.41
65598;SHT31;52267;51.984;20.956;2023-04-07T03:49:39;4.98;88.44
65598;SHT31;52267;51.984;20.956;2023-04-07T03:52:06;4.98;88.42
65598;SHT31;52267;51.984;20.956;2023-04-07T03:54:33;5.01;88.42
65598;SHT31;52267;51.984;20.956;2023-04-07T03:57:00;5.01;88.46
65598;SHT31;52267;51.984;20.956;2023-04-07T03:59:28;5.02;88.45
65598;SHT31;52267;51.984;20.956;2023-04-07T04:01:55;5.02;88.56
65598;SHT31;52267;51.984;20.956;2023-04-07T04:04:22;5.05;88.50
65598;SHT31;52267;51.984;20.956;2023-04-07T04:06:50;5.06;88.48
65598;SHT31;52267;51.984;20.956;2023-04-07T04:09:17;5.08;88.43
65598;SHT31;52267;51.984;20.956;2023-04-07T04:11:44;5.09;88.39
65598;SHT31;52267;51.984;20.956;2023-04-07T04:14:11;5.12;88.41
65598;SHT31;52267;51.984;20.956;2023-04-07T04:16:38;5.12;88.45
65598;SHT31;52267;51.984;20.956;2023-04-07T04:19:05;5.13;88.48
65598;SHT31;52267;51.984;20.956;2023-04-07T04:21:32;5.14;88.48
65598;SHT31;52267;51.984;20.956;2023-04-07T04:23:59;5.14;88.49
65598;SHT31;52267;51.984;20.956;2023-04-07T04:26:26;5.15;88.47
65598;SHT31;52267;51.984;20.956;2023-04-07T04:28:55;5.17;88.50
65598;SHT31;52267;51.984;20.956;2023-04-07T04:31:22;5.19;88.48
65598;SHT31;52267;51.984;20.956;2023-04-07T04:33:49;5.21;88.47
65598;SHT31;52267;51.984;20.956;2023-04-07T04:36:16;5.23;88.47
65598;SHT31;52267;51.984;20.956;2023-04-07T04:38:43;5.24;88.56
65598;SHT31;52267;51.984;20.956;2023-04-07T04:41:10;5.24;88.61
65598;SHT31;52267;51.984;20.956;2023-04-07T04:43:37;5.26;88.62
65598;SHT31;52267;51.984;20.956;2023-04-07T04:46:04;5.28;88.61
65598;SHT31;52267;51.984;20.956;2023-04-07T04:48:32;5.29;88.65
65598;SHT31;52267;51.984;20.956;2023-04-07T04:50:59;5.30;88.66
65598;SHT31;52267;51.984;20.956;2023-04-07T04:53:26;5.31;88.63
65598;SHT31;52267;51.984;20.956;2023-04-07T04:55:54;5.32;88.66
65598;SHT31;52267;51.984;20.956;2023-04-07T04:58:21;5.34;88.73
65598;SHT31;52267;51.984;20.956;2023-04-07T05:00:48;5.36;88.68
65598;SHT31;52267;51.984;20.956;2023-04-07T05:03:15;5.39;88.76
65598;SHT31;52267;51.984;20.956;2023-04-07T05:05:42;5.40;88.79
65598;SHT31;52267;51.984;20.956;2023-04-07T05:08:13;5.43;88.80
65598;SHT31;52267;51.984;20.956;2023-04-07T05:10:41;5.46;88.78
65598;SHT31;52267;51.984;20.956;2023-04-07T05:13:08;5.47;88.81
65598;SHT31;52267;51.984;20.956;2023-04-07T05:15:35;5.49;88.86
65598;SHT31;52267;51.984;20.956;2023-04-07T05:18:02;5.51;88.90
65598;SHT31;52267;51.984;20.956;2023-04-07T05:20:29;5.55;88.88
65598;SHT31;52267;51.984;20.956;2023-04-07T05:22:56;5.58;88.87
65598;SHT31;52267;51.984;20.956;2023-04-07T05:25:23;5.61;88.88
65598;SHT31;52267;51.984;20.956;2023-04-07T05:27:51;5.64;88.93
65598;SHT31;52267;51.984;20.956;2023-04-07T05:30:18;5.68;88.94
65598;SHT31;52267;51.984;20.956;2023-04-07T05:32:45;5.71;88.95
65598;SHT31;52267;51.984;20.956;2023-04-07T05:35:12;5.73;89.04
65598;SHT31;52267;51.984;20.956;2023-04-07T05:37:40;5.77;89.04
65598;SHT31;52267;51.984;20.956;2023-04-07T05:40:07;5.81;88.99
65598;SHT31;52267;51.984;20.956;2023-04-07T05:42:34;5.84;89.12
65598;SHT31;52267;51.984;20.956;2023-04-07T05:45:02;5.88;89.12
65598;SHT31;52267;51.984;20.956;2023-04-07T05:47:30;5.92;89.07
65598;SHT31;52267;51.984;20.956;2023-04-07T05:49:57;5.95;89.09
65598;SHT31;52267;51.984;20.956;2023-04-07T05:52:24;5.99;89.13
65598;SHT31;52267;51.984;20.956;2023-04-07T05:54:51;6.03;89.19
65598;SHT31;52267;51.984;20.956;2023-04-07T05:57:18;6.06;89.15
65598;SHT31;52267;51.984;20.956;2023-04-07T05:59:45;6.08;89.22
65598;SHT31;52267;51.984;20.956;2023-04-07T06:02:12;6.14;89.15
65598;SHT31;52267;51.984;20.956;2023-04-07T06:04:40;6.17;89.12
65598;SHT31;52267;51.984;20.956;2023-04-07T06:07:07;6.21;89.16
65598;SHT31;52267;51.984;20.956;2023-04-07T06:09:33;6.25;89.11
65598;SHT31;52267;51.984;20.956;2023-04-07T06:12:01;6.30;89.13
65598;SHT31;52267;51.984;20.956;2023-04-07T06:14:30;6.34;89.23
65598;SHT31;52267;51.984;20.956;2023-04-07T06:16:57;6.39;89.33
65598;SHT31;52267;51.984;20.956;2023-04-07T06:19:24;6.43;89.27
65598;SHT31;52267;51.984;20.956;2023-04-07T06:21:52;6.47;89.33
65598;SHT31;52267;51.984;20.956;2023-04-07T06:24:19;6.50;89.39
65598;SHT31;52267;51.984;20.956;2023-04-07T06:26:51;6.56;89.33
65598;SHT31;52267;51.984;20.956;2023-04-07T06:29:18;6.61;89.26
65598;SHT31;52267;51.984;20.956;2023-04-07T06:31:45;6.66;89.22
65598;SHT31;52267;51.984;20.956;2023-04-07T06:34:13;6.70;89.24
65598;SHT31;52267;51.984;20.956;2023-04-07T06:36:39;6.74;89.27
65598;SHT31;52267;51.984;20.956;2023-04-07T06:39:06;6.78;89.21
65598;SHT31;52267;51.984;20.956;2023-04-07T06:41:34;6.82;89.17
65598;SHT31;52267;51.984;20.956;2023-04-07T06:44:02;6.87;89.20
65598;SHT31;52267;51.984;20.956;2023-04-07T06:46:29;6.93;89.28
65598;SHT31;52267;51.984;20.956;2023-04-07T06:48:56;6.96;89.34
65598;SHT31;52267;51.984;20.956;2023-04-07T06:51:23;7.01;89.35
65598;SHT31;52267;51.984;20.956;2023-04-07T06:53:51;7.07;89.35
65598;SHT31;52267;51.984;20.956;2023-04-07T06:56:19;7.12;89.32
65598;SHT31;52267;51.984;20.956;2023-04-07T06:58:48;7.17;89.27
65598;SHT31;52267;51.984;20.956;2023-04-07T07:01:15;7.22;89.21
65598;SHT31;52267;51.984;20.956;2023-04-07T07:03:45;7.27;89.22
65598;SHT31;52267;51.984;20.956;2023-04-07T07:06:12;7.34;89.22
65598;SHT31;52267;51.984;20.956;2023-04-07T07:08:39;7.41;89.16
65598;SHT31;52267;51.984;20.956;2023-04-07T07:11:06;7.45;89.18
65598;SHT31;52267;51.984;20.956;2023-04-07T07:13:33;7.49;89.16
65598;SHT31;52267;51.984;20.956;2023-04-07T07:16:01;7.54;89.11
65598;SHT31;52267;51.984;20.956;2023-04-07T07:18:28;7.59;89.16
65598;SHT31;52267;51.984;20.956;2023-04-07T07:20:55;7.62;89.23
65598;SHT31;52267;51.984;20.956;2023-04-07T07:23:22;7.65;89.22
65598;SHT31;52267;51.984;20.956;2023-04-07T07:25:49;7.68;89.25
65598;SHT31;52267;51.984;20.956;2023-04-07T07:28:16;7.72;89.30
65598;SHT31;52267;51.984;20.956;2023-04-07T07:30:43;7.74;89.29
65598;SHT31;52267;51.984;20.956;2023-04-07T07:33:11;7.77;89.32
65598;SHT31;52267;51.984;20.956;2023-04-07T07:35:38;7.81;89.18
65598;SHT31;52267;51.984;20.956;2023-04-07T07:38:06;7.82;89.26
65598;SHT31;52267;51.984;20.956;2023-04-07T07:40:33;7.85;89.28
65598;SHT31;52267;51.984;20.956;2023-04-07T07:43:00;7.88;89.28
65598;SHT31;52267;51.984;20.956;2023-04-07T07:45:27;7.89;89.26
65598;SHT31;52267;51.984;20.956;2023-04-07T07:47:54;7.92;89.25
65598;SHT31;52267;51.984;20.956;2023-04-07T07:50:22;7.94;89.19
65598;SHT31;52267;51.984;20.956;2023-04-07T07:52:49;7.96;89.18
65598;SHT31;52267;51.984;20.956;2023-04-07T07:55:16;7.97;89.16
65598;SHT31;52267;51.984;20.956;2023-04-07T07:57:43;7.98;89.13
65598;SHT31;52267;51.984;20.956;2023-04-07T08:00:10;7.98;89.15
65598;SHT31;52267;51.984;20.956;2023-04-07T08:02:38;7.99;89.07
65598;SHT31;52267;51.984;20.956;2023-04-07T08:05:05;8.03;89.06
65598;SHT31;52267;51.984;20.956;2023-04-07T08:07:33;8.04;89.12
65598;SHT31;52267;51.984;20.956;2023-04-07T08:10:01;8.05;89.13
65598;SHT31;52267;51.984;20.956;2023-04-07T08:12:28;8.06;89.14
65598;SHT31;52267;51.984;20.956;2023-04-07T08:14:55;8.08;89.15
65598;SHT31;52267;51.984;20.956;2023-04-07T08:17:22;8.11;89.19
65598;SHT31;52267;51.984;20.956;2023-04-07T08:19:49;8.13;89.18
65598;SHT31;52267;51.984;20.956;2023-04-07T08:22:16;8.17;89.15
65598;SHT31;52267;51.984;20.956;2023-04-07T08:24:46;8.22;89.14
65598;SHT31;52267;51.984;20.956;2023-04-07T08:27:13;8.24;89.10
65598;SHT31;52267;51.984;20.956;2023-04-07T08:29:40;8.27;89.08
65598;SHT31;52267;51.984;20.956;2023-04-07T08:32:07;8.29;89.13
65598;SHT31;52267;51.984;20.956;2023-04-07T08:34:35;8.33;89.16
65598;SHT31;52267;51.984;20.956;2023-04-07T08:37:01;8.39;89.13
65598;SHT31;52267;51.984;20.956;2023-04-07T08:39:29;8.44;89.11
65598;SHT31;52267;51.984;20.956;2023-04-07T08:41:56;8.53;89.10
65598;SHT31;52267;51.984;20.956;2023-04-07T08:44:23;8.62;89.13
65598;SHT31;52267;51.984;20.956;2023-04-07T08:46:52;8.72;89.08
65598;SHT31;52267;51.984;20.956;2023-04-07T08:49:22;8.81;89.15
65598;SHT31;52267;51.984;20.956;2023-04-07T08:51:51;8.93;89.22
65598;SHT31;52267;51.984;20.956;2023-04-07T08:54:20;9.06;89.18
65598;SHT31;52267;51.984;20.956;2023-04-07T08:56:49;9.19;89.11
65598;SHT31;52267;51.984;20.956;2023-04-07T08:59:17;9.34;88.98
65598;SHT31;52267;51.984;20.956;2023-04-07T09:01:44;9.45;88.97
65598;SHT31;52267;51.984;20.956;2023-04-07T09:04:12;9.54;88.91
65598;SHT31;52267;51.984;20.956;2023-04-07T09:06:40;9.61;89.01
65598;SHT31;52267;51.984;20.956;2023-04-07T09:09:07;9.70;88.94
65598;SHT31;52267;51.984;20.956;2023-04-07T09:11:35;9.76;88.85
65598;SHT31;52267;51.984;20.956;2023-04-07T09:14:05;9.80;88.85
65598;SHT31;52267;51.984;20.956;2023-04-07T09:16:33;9.82;88.79
65598;SHT31;52267;51.984;20.956;2023-04-07T09:19:00;9.87;88.81
65598;SHT31;52267;51.984;20.956;2023-04-07T09:21:45;9.93;88.82
65598;SHT31;52267;51.984;20.956;2023-04-07T09:24:21;9.95;88.70
65598;SHT31;52267;51.984;20.956;2023-04-07T09:26:48;9.98;88.75
65598;SHT31;52267;51.984;20.956;2023-04-07T09:29:17;10.01;88.70
65598;SHT31;52267;51.984;20.956;2023-04-07T09:31:47;10.05;88.71
65598;SHT31;52267;51.984;20.956;2023-04-07T09:34:27;10.09;88.67
65598;SHT31;52267;51.984;20.956;2023-04-07T09:36:55;10.13;88.68
65598;SHT31;52267;51.984;20.956;2023-04-07T09:39:23;10.14;88.65
65598;SHT31;52267;51.984;20.956;2023-04-07T09:41:51;10.17;88.64
65598;SHT31;52267;51.984;20.956;2023-04-07T09:44:19;10.22;88.60
65598;SHT31;52267;51.984;20.956;2023-04-07T09:46:54;10.23;88.56
65598;SHT31;52267;51.984;20.956;2023-04-07T09:49:24;10.27;88.51
65598;SHT31;52267;51.984;20.956;2023-04-07T09:51:53;10.27;88.47
65598;SHT31;52267;51.984;20.956;2023-04-07T09:57:07;10.26;88.46
65598;SHT31;52267;51.984;20.956;2023-04-07T09:59:37;10.22;88.47
65598;SHT31;52267;51.984;20.956;2023-04-07T10:02:10;10.23;88.43
65598;SHT31;52267;51.984;20.956;2023-04-07T10:04:38;10.26;88.41
65598;SHT31;52267;51.984;20.956;2023-04-07T10:07:06;10.27;88.32
65598;SHT31;52267;51.984;20.956;2023-04-07T10:09:33;10.27;88.27
65598;SHT31;52267;51.984;20.956;2023-04-07T10:12:00;10.28;88.31
65598;SHT31;52267;51.984;20.956;2023-04-07T10:14:30;10.29;88.34
65598;SHT31;52267;51.984;20.956;2023-04-07T10:17:00;10.31;88.37
65598;SHT31;52267;51.984;20.956;2023-04-07T10:19:32;10.32;88.39
65598;SHT31;52267;51.984;20.956;2023-04-07T10:22:01;10.32;88.37
65598;SHT31;52267;51.984;20.956;2023-04-07T10:27:32;10.35;88.39
65598;SHT31;52267;51.984;20.956;2023-04-07T10:30:02;10.37;88.41
65598;SHT31;52267;51.984;20.956;2023-04-07T10:32:45;10.39;88.44
65598;SHT31;52267;51.984;20.956;2023-04-07T10:35:16;10.41;88.47
65598;SHT31;52267;51.984;20.956;2023-04-07T10:38:26;10.45;88.49
65598;SHT31;52267;51.984;20.956;2023-04-07T10:40:36;10.47;88.54
65598;SHT31;52267;51.984;20.956;2023-04-07T10:43:04;10.50;88.49
65598;SHT31;52267;51.984;20.956;2023-04-07T10:48:18;10.55;88.54
65598;SHT31;52267;51.984;20.956;2023-04-07T10:51:03;10.55;88.49
65598;SHT31;52267;51.984;20.956;2023-04-07T10:53:33;10.55;88.53
65598;SHT31;52267;51.984;20.956;2023-04-07T10:56:01;10.55;88.60
65598;SHT31;52267;51.984;20.956;2023-04-07T10:58:28;10.56;88.60
65598;SHT31;52267;51.984;20.956;2023-04-07T11:03:38;10.57;88.64
65598;SHT31;52267;51.984;20.956;2023-04-07T11:06:20;10.57;88.69
65598;SHT31;52267;51.984;20.956;2023-04-07T11:08:47;10.58;88.70
65598;SHT31;52267;51.984;20.956;2023-04-07T11:11:37;10.60;88.74
65598;SHT31;52267;51.984;20.956;2023-04-07T11:14:05;10.59;88.82
65598;SHT31;52267;51.984;20.956;2023-04-07T11:16:40;10.60;88.85
65598;SHT31;52267;51.984;20.956;2023-04-07T11:19:08;10.61;88.86
65598;SHT31;52267;51.984;20.956;2023-04-07T11:21:36;10.61;88.86
65598;SHT31;52267;51.984;20.956;2023-04-07T11:24:03;10.62;88.83
65598;SHT31;52267;51.984;20.956;2023-04-07T11:26:35;10.62;88.86
65598;SHT31;52267;51.984;20.956;2023-04-07T11:29:07;10.63;88.90
65598;SHT31;52267;51.984;20.956;2023-04-07T11:31:34;10.64;88.88
65598;SHT31;52267;51.984;20.956;2023-04-07T11:34:02;10.65;88.88
65598;SHT31;52267;51.984;20.956;2023-04-07T11:36:34;10.68;88.87
65598;SHT31;52267;51.984;20.956;2023-04-07T11:39:04;10.70;88.90
65598;SHT31;52267;51.984;20.956;2023-04-07T11:41:32;10.71;88.89
65598;SHT31;52267;51.984;20.956;2023-04-07T11:44:06;10.72;88.89
65598;SHT31;52267;51.984;20.956;2023-04-07T11:46:59;10.74;88.94
65598;SHT31;52267;51.984;20.956;2023-04-07T11:49:28;10.78;88.97
65598;SHT31;52267;51.984;20.956;2023-04-07T11:52:00;10.82;88.97
65598;SHT31;52267;51.984;20.956;2023-04-07T11:57:12;10.95;88.96
65598;SHT31;52267;51.984;20.956;2023-04-07T11:59:40;11.02;88.89
65598;SHT31;52267;51.984;20.956;2023-04-07T12:02:07;11.07;88.87
65598;SHT31;52267;51.984;20.956;2023-04-07T12:04:34;11.09;88.92
65598;SHT31;52267;51.984;20.956;2023-04-07T12:07:06;11.09;88.97
65598;SHT31;52267;51.984;20.956;2023-04-07T12:09:35;11.10;88.99
65598;SHT31;52267;51.984;20.956;2023-04-07T12:12:04;11.09;89.01
65598;SHT31;52267;51.984;20.956;2023-04-07T12:14:33;11.09;88.99
65598;SHT31;52267;51.984;20.956;2023-04-07T12:17:01;11.10;88.90
65598;SHT31;52267;51.984;20.956;2023-04-07T12:19:29;11.07;88.83
65598;SHT31;52267;51.984;20.956;2023-04-07T12:22:04;10.97;89.10
65598;SHT31;52267;51.984;20.956;2023-04-07T12:24:32;10.76;89.18
65598;SHT31;52267;51.984;20.956;2023-04-07T12:26:59;10.57;89.10
65598;SHT31;52267;51.984;20.956;2023-04-07T12:29:26;10.40;89.47
65598;SHT31;52267;51.984;20.956;2023-04-07T12:31:53;10.27;89.92
65598;SHT31;52267;51.984;20.956;2023-04-07T12:34:21;10.22;90.14
65598;SHT31;52267;51.984;20.956;2023-04-07T12:36:49;10.19;90.15
65598;SHT31;52267;51.984;20.956;2023-04-07T12:39:16;10.16;90.20
65598;SHT31;52267;51.984;20.956;2023-04-07T12:41:43;10.12;90.11
65598;SHT31;52267;51.984;20.956;2023-04-07T12:44:14;10.09;90.39
65598;SHT31;52267;51.984;20.956;2023-04-07T12:46:42;10.06;90.27
65598;SHT31;52267;51.984;20.956;2023-04-07T12:49:09;10.06;90.12
65598;SHT31;52267;51.984;20.956;2023-04-07T12:51:36;10.10;90.31
65598;SHT31;52267;51.984;20.956;2023-04-07T12:54:05;10.12;90.60
65598;SHT31;52267;51.984;20.956;2023-04-07T12:56:32;10.14;90.40
65598;SHT31;52267;51.984;20.956;2023-04-07T12:58:59;10.18;90.22
65598;SHT31;52267;51.984;20.956;2023-04-07T13:01:26;10.17;89.91
65598;SHT31;52267;51.984;20.956;2023-04-07T13:03:53;10.18;89.96
65598;SHT31;52267;51.984;20.956;2023-04-07T13:06:20;10.26;89.94
65598;SHT31;52267;51.984;20.956;2023-04-07T13:08:47;10.28;89.75
65598;SHT31;52267;51.984;20.956;2023-04-07T13:11:14;10.31;89.54
65598;SHT31;52267;51.984;20.956;2023-04-07T13:13:41;10.33;89.31
65598;SHT31;52267;51.984;20.956;2023-04-07T13:16:09;10.40;89.18
65598;SHT31;52267;51.984;20.956;2023-04-07T13:18:36;10.48;89.11
65598;SHT31;52267;51.984;20.956;2023-04-07T13:21:03;10.57;89.45
65598;SHT31;52267;51.984;20.956;2023-04-07T13:23:30;10.68;89.19
65598;SHT31;52267;51.984;20.956;2023-04-07T13:25:57;10.79;88.97
65598;SHT31;52267;51.984;20.956;2023-04-07T13:28:25;10.86;88.68
65598;SHT31;52267;51.984;20.956;2023-04-07T13:30:53;10.92;88.45
65598;SHT31;52267;51.984;20.956;2023-04-07T13:33:20;11.02;88.45
65598;SHT31;52267;51.984;20.956;2023-04-07T13:35:47;11.15;88.24
65598;SHT31;52267;51.984;20.956;2023-04-07T13:38:14;11.20;87.80
65598;SHT31;52267;51.984;20.956;2023-04-07T13:40:41;11.22;87.91
65598;SHT31;52267;51.984;20.956;2023-04-07T13:43:10;11.28;87.66
65598;SHT31;52267;51.984;20.956;2023-04-07T13:45:38;11.27;86.52
65598;SHT31;52267;51.984;20.956;2023-04-07T13:48:05;11.26;86.44
65598;SHT31;52267;51.984;20.956;2023-04-07T13:50:34;11.22;85.79
65598;SHT31;52267;51.984;20.956;2023-04-07T13:53:02;11.14;85.56
65598;SHT31;52267;51.984;20.956;2023-04-07T13:55:29;11.10;85.63
65598;SHT31;52267;51.984;20.956;2023-04-07T13:57:56;11.03;85.51
65598;SHT31;52267;51.984;20.956;2023-04-07T14:00:23;10.88;85.34
65598;SHT31;52267;51.984;20.956;2023-04-07T14:02:51;10.60;85.24
65598;SHT31;52267;51.984;20.956;2023-04-07T14:05:18;10.31;85.81
65598;SHT31;52267;51.984;20.956;2023-04-07T14:07:45;10.06;86.07
65598;SHT31;52267;51.984;20.956;2023-04-07T14:10:12;9.78;86.30
65598;SHT31;52267;51.984;20.956;2023-04-07T14:12:40;9.60;86.18
65598;SHT31;52267;51.984;20.956;2023-04-07T14:15:07;9.45;85.97
65598;SHT31;52267;51.984;20.956;2023-04-07T14:17:35;9.34;85.98
65598;SHT31;52267;51.984;20.956;2023-04-07T14:20:03;9.25;85.98
65598;SHT31;52267;51.984;20.956;2023-04-07T14:22:30;9.16;85.86
65598;SHT31;52267;51.984;20.956;2023-04-07T14:24:57;9.07;85.81
65598;SHT31;52267;51.984;20.956;2023-04-07T14:27:24;8.99;85.89
65598;SHT31;52267;51.984;20.956;2023-04-07T14:29:51;8.92;85.98
65598;SHT31;52267;51.984;20.956;2023-04-07T14:32:20;8.87;86.02
65598;SHT31;52267;51.984;20.956;2023-04-07T14:34:47;8.85;86.02
65598;SHT31;52267;51.984;20.956;2023-04-07T14:37:14;8.82;86.16
65598;SHT31;52267;51.984;20.956;2023-04-07T14:39:43;8.86;86.01
65598;SHT31;52267;51.984;20.956;2023-04-07T14:42:10;8.87;86.08
65598;SHT31;52267;51.984;20.956;2023-04-07T14:44:38;8.87;86.03
65598;SHT31;52267;51.984;20.956;2023-04-07T14:47:06;8.90;85.90
65598;SHT31;52267;51.984;20.956;2023-04-07T14:49:33;8.95;85.82
65598;SHT31;52267;51.984;20.956;2023-04-07T14:52:00;8.98;85.77
65598;SHT31;52267;51.984;20.956;2023-04-07T14:54:27;9.01;85.84
65598;SHT31;52267;51.984;20.956;2023-04-07T14:56:55;9.07;86.09
65598;SHT31;52267;51.984;20.956;2023-04-07T14:59:22;9.14;86.04
65598;SHT31;52267;51.984;20.956;2023-04-07T15:01:50;9.18;85.90
65598;SHT31;52267;51.984;20.956;2023-04-07T15:04:17;9.25;85.92
65598;SHT31;52267;51.984;20.956;2023-04-07T15:06:44;9.28;86.01
65598;SHT31;52267;51.984;20.956;2023-04-07T15:09:11;9.31;85.72
65598;SHT31;52267;51.984;20.956;2023-04-07T15:11:38;9.35;85.56
65598;SHT31;52267;51.984;20.956;2023-04-07T15:14:05;9.35;85.32
65598;SHT31;52267;51.984;20.956;2023-04-07T15:16:32;9.38;85.18
65598;SHT31;52267;51.984;20.956;2023-04-07T15:18:59;9.37;84.81
65598;SHT31;52267;51.984;20.956;2023-04-07T15:21:26;9.40;85.00
65598;SHT31;52267;51.984;20.956;2023-04-07T15:23:53;9.38;84.49
65598;SHT31;52267;51.984;20.956;2023-04-07T15:26:21;9.40;84.59
65598;SHT31;52267;51.984;20.956;2023-04-07T15:28:48;9.40;84.72
65598;SHT31;52267;51.984;20.956;2023-04-07T15:31:15;9.41;84.77
65598;SHT31;52267;51.984;20.956;2023-04-07T15:33:43;9.38;84.01
65598;SHT31;52267;51.984;20.956;2023-04-07T15:36:11;9.36;83.84
65598;SHT31;52267;51.984;20.956;2023-04-07T15:38:38;9.37;83.84
65598;SHT31;52267;51.984;20.956;2023-04-07T15:41:05;9.35;83.45
65598;SHT31;52267;51.984;20.956;2023-04-07T15:43:33;9.33;83.04
65598;SHT31;52267;51.984;20.956;2023-04-07T15:46:02;9.34;83.11
65598;SHT31;52267;51.984;20.956;2023-04-07T15:48:29;9.34;82.85
65598;SHT31;52267;51.984;20.956;2023-04-07T15:50:56;9.31;82.56
65598;SHT31;52267;51.984;20.956;2023-04-07T15:53:23;9.27;82.37